sensor_id;sensor_type;location;lat;lon;timestamp;P1;durP1;ratioP1;P2;durP2;ratioP2
17052;SDS011;8643;48.824;11.422;2023-07-16T00:01:00;6.95;;;3.88;;
17052;SDS011;8643;48.824;11.422;2023-07-16T00:03:30;5.78;;;4.28;;
17052;SDS011;8643;48.824;11.422;2023-07-16T00:05:59;8.23;;;4.35;;
17052;SDS011;8643;48.824;11.422;2023-07-16T00:08:28;9.20;;;4.43;;
17052;SDS011;8643;48.824;11.422;2023-07-16T00:10:56;6.72;;;4.38;;
17052;SDS011;8643;48.824;11.422;2023-07-16T00:13:26;6.18;;;4.38;;
17052;SDS011;8643;48.824;11.422;2023-07-16T00:15:54;6.57;;;4.35;;
17052;SDS011;8643;48.824;11.422;2023-07-16T00:18:23;8.55;;;4.40;;
17052;SDS011;8643;48.824;11.422;2023-07-16T00:20:53;6.95;;;4.72;;
17052;SDS011;8643;48.824;11.422;2023-07-16T00:23:21;5.00;;;4.20;;
17052;SDS011;8643;48.824;11.422;2023-07-16T00:25:50;5.68;;;4.38;;
17052;SDS011;8643;48.824;11.422;2023-07-16T00:28:18;7.45;;;3.90;;
17052;SDS011;8643;48.824;11.422;2023-07-16T00:30:47;6.68;;;4.53;;
17052;SDS011;8643;48.824;11.422;2023-07-16T00:33:15;5.05;;;3.92;;
17052;SDS011;8643;48.824;11.422;2023-07-16T00:35:46;6.32;;;4.15;;
17052;SDS011;8643;48.824;11.422;2023-07-16T00:38:18;7.10;;;4.25;;
17052;SDS011;8643;48.824;11.422;2023-07-16T00:40:46;9.05;;;4.10;;
17052;SDS011;8643;48.824;11.422;2023-07-16T00:43:15;8.32;;;4.18;;
17052;SDS011;8643;48.824;11.422;2023-07-16T00:45:44;6.60;;;4.45;;
17052;SDS011;8643;48.824;11.422;2023-07-16T00:48:14;12.60;;;6.57;;
17052;SDS011;8643;48.824;11.422;2023-07-16T00:50:42;8.20;;;5.47;;
17052;SDS011;8643;48.824;11.422;2023-07-16T00:53:12;11.10;;;5.82;;
17052;SDS011;8643;48.824;11.422;2023-07-16T00:55:42;8.82;;;6.40;;
17052;SDS011;8643;48.824;11.422;2023-07-16T00:58:11;9.27;;;6.15;;
17052;SDS011;8643;48.824;11.422;2023-07-16T01:00:40;13.38;;;6.57;;
17052;SDS011;8643;48.824;11.422;2023-07-16T01:03:10;11.75;;;6.35;;
17052;SDS011;8643;48.824;11.422;2023-07-16T01:05:44;11.90;;;6.95;;
17052;SDS011;8643;48.824;11.422;2023-07-16T01:08:20;12.30;;;7.35;;
17052;SDS011;8643;48.824;11.422;2023-07-16T01:10:56;13.95;;;7.80;;
17052;SDS011;8643;48.824;11.422;2023-07-16T01:13:25;9.63;;;7.50;;
17052;SDS011;8643;48.824;11.422;2023-07-16T01:15:54;12.77;;;7.43;;
17052;SDS011;8643;48.824;11.422;2023-07-16T01:18:23;14.13;;;7.80;;
17052;SDS011;8643;48.824;11.422;2023-07-16T01:20:51;11.82;;;7.00;;
17052;SDS011;8643;48.824;11.422;2023-07-16T01:23:26;12.00;;;7.13;;
17052;SDS011;8643;48.824;11.422;2023-07-16T01:26:11;12.60;;;8.32;;
17052;SDS011;8643;48.824;11.422;2023-07-16T01:29:18;12.38;;;8.63;;
17052;SDS011;8643;48.824;11.422;2023-07-16T01:31:59;21.35;;;10.20;;
17052;SDS011;8643;48.824;11.422;2023-07-16T01:34:32;24.35;;;10.85;;
17052;SDS011;8643;48.824;11.422;2023-07-16T01:37:03;17.80;;;11.60;;
17052;SDS011;8643;48.824;11.422;2023-07-16T01:39:32;26.65;;;11.57;;
17052;SDS011;8643;48.824;11.422;2023-07-16T01:42:01;14.15;;;10.80;;
17052;SDS011;8643;48.824;11.422;2023-07-16T01:44:31;23.27;;;12.02;;
17052;SDS011;8643;48.824;11.422;2023-07-16T01:47:05;18.08;;;10.63;;
17052;SDS011;8643;48.824;11.422;2023-07-16T01:49:37;16.92;;;10.57;;
17052;SDS011;8643;48.824;11.422;2023-07-16T01:52:06;17.05;;;9.80;;
17052;SDS011;8643;48.824;11.422;2023-07-16T01:54:36;13.63;;;9.27;;
17052;SDS011;8643;48.824;11.422;2023-07-16T01:57:05;14.05;;;9.75;;
17052;SDS011;8643;48.824;11.422;2023-07-16T01:59:35;13.57;;;9.32;;
17052;SDS011;8643;48.824;11.422;2023-07-16T02:02:03;13.98;;;8.68;;
17052;SDS011;8643;48.824;11.422;2023-07-16T02:04:33;15.35;;;8.82;;
17052;SDS011;8643;48.824;11.422;2023-07-16T02:07:02;16.48;;;8.77;;
17052;SDS011;8643;48.824;11.422;2023-07-16T02:09:33;19.85;;;9.25;;
17052;SDS011;8643;48.824;11.422;2023-07-16T02:12:02;14.07;;;8.75;;
17052;SDS011;8643;48.824;11.422;2023-07-16T02:14:32;13.80;;;9.00;;
17052;SDS011;8643;48.824;11.422;2023-07-16T02:17:02;14.13;;;7.93;;
17052;SDS011;8643;48.824;11.422;2023-07-16T02:19:31;12.65;;;7.88;;
17052;SDS011;8643;48.824;11.422;2023-07-16T02:21:59;12.55;;;8.05;;
17052;SDS011;8643;48.824;11.422;2023-07-16T02:24:27;16.58;;;7.22;;
17052;SDS011;8643;48.824;11.422;2023-07-16T02:26:56;11.07;;;6.53;;
17052;SDS011;8643;48.824;11.422;2023-07-16T02:29:25;9.25;;;5.95;;
17052;SDS011;8643;48.824;11.422;2023-07-16T02:31:54;9.05;;;6.10;;
17052;SDS011;8643;48.824;11.422;2023-07-16T02:34:23;13.23;;;6.53;;
17052;SDS011;8643;48.824;11.422;2023-07-16T02:36:53;11.48;;;6.97;;
17052;SDS011;8643;48.824;11.422;2023-07-16T02:39:21;10.50;;;6.80;;
17052;SDS011;8643;48.824;11.422;2023-07-16T02:41:49;13.93;;;7.53;;
17052;SDS011;8643;48.824;11.422;2023-07-16T02:44:18;9.35;;;7.03;;
17052;SDS011;8643;48.824;11.422;2023-07-16T02:46:47;10.82;;;7.10;;
17052;SDS011;8643;48.824;11.422;2023-07-16T02:49:17;12.40;;;6.35;;
17052;SDS011;8643;48.824;11.422;2023-07-16T02:51:45;10.40;;;6.40;;
17052;SDS011;8643;48.824;11.422;2023-07-16T02:54:14;11.68;;;6.22;;
17052;SDS011;8643;48.824;11.422;2023-07-16T02:56:42;10.10;;;6.45;;
17052;SDS011;8643;48.824;11.422;2023-07-16T02:59:11;13.18;;;6.50;;
17052;SDS011;8643;48.824;11.422;2023-07-16T03:01:39;8.25;;;5.55;;
17052;SDS011;8643;48.824;11.422;2023-07-16T03:04:08;9.77;;;6.05;;
17052;SDS011;8643;48.824;11.422;2023-07-16T03:06:38;8.80;;;5.45;;
17052;SDS011;8643;48.824;11.422;2023-07-16T03:09:07;7.75;;;4.40;;
17052;SDS011;8643;48.824;11.422;2023-07-16T03:11:35;9.00;;;4.25;;
17052;SDS011;8643;48.824;11.422;2023-07-16T03:14:03;5.13;;;3.28;;
17052;SDS011;8643;48.824;11.422;2023-07-16T03:16:32;4.90;;;3.33;;
17052;SDS011;8643;48.824;11.422;2023-07-16T03:19:00;5.63;;;3.53;;
17052;SDS011;8643;48.824;11.422;2023-07-16T03:21:29;5.47;;;3.00;;
17052;SDS011;8643;48.824;11.422;2023-07-16T03:23:59;5.50;;;3.25;;
17052;SDS011;8643;48.824;11.422;2023-07-16T03:26:28;4.13;;;3.05;;
17052;SDS011;8643;48.824;11.422;2023-07-16T03:28:57;4.53;;;2.53;;
17052;SDS011;8643;48.824;11.422;2023-07-16T03:31:26;4.15;;;2.65;;
17052;SDS011;8643;48.824;11.422;2023-07-16T03:33:56;5.10;;;2.80;;
17052;SDS011;8643;48.824;11.422;2023-07-16T03:36:28;5.32;;;2.80;;
17052;SDS011;8643;48.824;11.422;2023-07-16T03:38:57;3.08;;;2.03;;
17052;SDS011;8643;48.824;11.422;2023-07-16T03:41:27;4.38;;;2.60;;
17052;SDS011;8643;48.824;11.422;2023-07-16T03:43:55;5.82;;;2.50;;
17052;SDS011;8643;48.824;11.422;2023-07-16T03:46:24;3.97;;;2.80;;
17052;SDS011;8643;48.824;11.422;2023-07-16T03:48:53;4.30;;;3.00;;
17052;SDS011;8643;48.824;11.422;2023-07-16T03:51:22;3.25;;;2.58;;
17052;SDS011;8643;48.824;11.422;2023-07-16T03:53:53;4.78;;;2.80;;
17052;SDS011;8643;48.824;11.422;2023-07-16T03:56:23;9.15;;;3.20;;
17052;SDS011;8643;48.824;11.422;2023-07-16T03:58:51;3.50;;;3.17;;
17052;SDS011;8643;48.824;11.422;2023-07-16T04:01:21;5.90;;;3.40;;
17052;SDS011;8643;48.824;11.422;2023-07-16T04:03:49;5.40;;;3.65;;
17052;SDS011;8643;48.824;11.422;2023-07-16T04:06:20;5.68;;;3.90;;
17052;SDS011;8643;48.824;11.422;2023-07-16T04:08:48;6.93;;;3.55;;
17052;SDS011;8643;48.824;11.422;2023-07-16T04:11:17;4.70;;;3.45;;
17052;SDS011;8643;48.824;11.422;2023-07-16T04:13:47;14.18;;;3.40;;
17052;SDS011;8643;48.824;11.422;2023-07-16T04:16:15;6.55;;;3.20;;
17052;SDS011;8643;48.824;11.422;2023-07-16T04:18:44;6.20;;;3.45;;
17052;SDS011;8643;48.824;11.422;2023-07-16T04:21:13;7.60;;;3.10;;
17052;SDS011;8643;48.824;11.422;2023-07-16T04:23:42;10.35;;;3.95;;
17052;SDS011;8643;48.824;11.422;2023-07-16T04:26:10;6.75;;;3.25;;
17052;SDS011;8643;48.824;11.422;2023-07-16T04:28:38;4.80;;;3.50;;
17052;SDS011;8643;48.824;11.422;2023-07-16T04:31:08;6.05;;;3.40;;
17052;SDS011;8643;48.824;11.422;2023-07-16T04:33:36;7.78;;;3.35;;
17052;SDS011;8643;48.824;11.422;2023-07-16T04:36:05;4.22;;;2.97;;
17052;SDS011;8643;48.824;11.422;2023-07-16T04:38:33;4.32;;;3.00;;
17052;SDS011;8643;48.824;11.422;2023-07-16T04:41:02;4.75;;;3.40;;
17052;SDS011;8643;48.824;11.422;2023-07-16T04:43:30;7.63;;;3.78;;
17052;SDS011;8643;48.824;11.422;2023-07-16T04:45:59;7.10;;;3.83;;
17052;SDS011;8643;48.824;11.422;2023-07-16T04:48:29;9.43;;;4.15;;
17052;SDS011;8643;48.824;11.422;2023-07-16T04:50:57;7.90;;;3.33;;
17052;SDS011;8643;48.824;11.422;2023-07-16T04:53:25;5.07;;;3.30;;
17052;SDS011;8643;48.824;11.422;2023-07-16T04:55:54;5.15;;;3.00;;
17052;SDS011;8643;48.824;11.422;2023-07-16T04:58:23;5.45;;;3.00;;
17052;SDS011;8643;48.824;11.422;2023-07-16T05:00:53;3.75;;;3.10;;
17052;SDS011;8643;48.824;11.422;2023-07-16T05:03:21;6.07;;;3.17;;
17052;SDS011;8643;48.824;11.422;2023-07-16T05:05:55;7.90;;;3.03;;
17052;SDS011;8643;48.824;11.422;2023-07-16T05:08:23;5.00;;;3.03;;
17052;SDS011;8643;48.824;11.422;2023-07-16T05:10:52;4.47;;;3.00;;
17052;SDS011;8643;48.824;11.422;2023-07-16T05:13:20;9.13;;;3.17;;
17052;SDS011;8643;48.824;11.422;2023-07-16T05:15:49;4.70;;;3.53;;
17052;SDS011;8643;48.824;11.422;2023-07-16T05:18:18;4.85;;;3.33;;
17052;SDS011;8643;48.824;11.422;2023-07-16T05:20:48;4.72;;;3.00;;
17052;SDS011;8643;48.824;11.422;2023-07-16T05:23:18;6.22;;;3.33;;
17052;SDS011;8643;48.824;11.422;2023-07-16T05:25:47;4.10;;;2.70;;
17052;SDS011;8643;48.824;11.422;2023-07-16T05:28:18;6.05;;;3.13;;
17052;SDS011;8643;48.824;11.422;2023-07-16T05:30:56;6.32;;;3.20;;
17052;SDS011;8643;48.824;11.422;2023-07-16T05:33:26;7.25;;;3.42;;
17052;SDS011;8643;48.824;11.422;2023-07-16T05:35:55;4.40;;;3.05;;
17052;SDS011;8643;48.824;11.422;2023-07-16T05:38:25;3.40;;;3.10;;
17052;SDS011;8643;48.824;11.422;2023-07-16T05:40:53;4.32;;;2.78;;
17052;SDS011;8643;48.824;11.422;2023-07-16T05:43:29;4.78;;;2.75;;
17052;SDS011;8643;48.824;11.422;2023-07-16T05:45:57;3.85;;;2.97;;
17052;SDS011;8643;48.824;11.422;2023-07-16T05:48:26;3.10;;;2.60;;
17052;SDS011;8643;48.824;11.422;2023-07-16T05:50:55;5.57;;;2.92;;
17052;SDS011;8643;48.824;11.422;2023-07-16T05:53:25;7.22;;;2.88;;
17052;SDS011;8643;48.824;11.422;2023-07-16T05:55:53;4.60;;;2.65;;
17052;SDS011;8643;48.824;11.422;2023-07-16T05:58:22;4.97;;;2.20;;
17052;SDS011;8643;48.824;11.422;2023-07-16T06:00:51;7.90;;;3.10;;
17052;SDS011;8643;48.824;11.422;2023-07-16T06:03:20;4.53;;;2.78;;
17052;SDS011;8643;48.824;11.422;2023-07-16T06:05:49;3.63;;;2.67;;
17052;SDS011;8643;48.824;11.422;2023-07-16T06:08:17;6.20;;;2.83;;
17052;SDS011;8643;48.824;11.422;2023-07-16T06:10:48;3.97;;;2.88;;
17052;SDS011;8643;48.824;11.422;2023-07-16T06:13:16;5.03;;;2.60;;
17052;SDS011;8643;48.824;11.422;2023-07-16T06:15:45;4.25;;;2.30;;
17052;SDS011;8643;48.824;11.422;2023-07-16T06:18:14;4.28;;;2.95;;
17052;SDS011;8643;48.824;11.422;2023-07-16T06:20:47;4.95;;;2.65;;
17052;SDS011;8643;48.824;11.422;2023-07-16T06:23:17;4.15;;;2.20;;
17052;SDS011;8643;48.824;11.422;2023-07-16T06:25:45;4.57;;;2.20;;
17052;SDS011;8643;48.824;11.422;2023-07-16T06:28:16;5.05;;;2.38;;
17052;SDS011;8643;48.824;11.422;2023-07-16T06:30:44;4.43;;;2.40;;
17052;SDS011;8643;48.824;11.422;2023-07-16T06:33:13;4.10;;;2.00;;
17052;SDS011;8643;48.824;11.422;2023-07-16T06:35:43;7.15;;;2.25;;
17052;SDS011;8643;48.824;11.422;2023-07-16T06:38:13;5.38;;;1.88;;
17052;SDS011;8643;48.824;11.422;2023-07-16T06:40:47;6.72;;;2.28;;
17052;SDS011;8643;48.824;11.422;2023-07-16T06:43:17;5.03;;;2.38;;
17052;SDS011;8643;48.824;11.422;2023-07-16T06:45:45;5.47;;;1.88;;
17052;SDS011;8643;48.824;11.422;2023-07-16T06:48:16;5.57;;;1.98;;
17052;SDS011;8643;48.824;11.422;2023-07-16T06:50:44;4.07;;;1.65;;
17052;SDS011;8643;48.824;11.422;2023-07-16T06:53:13;2.95;;;1.85;;
17052;SDS011;8643;48.824;11.422;2023-07-16T06:55:42;5.47;;;1.90;;
17052;SDS011;8643;48.824;11.422;2023-07-16T06:58:13;2.88;;;1.70;;
17052;SDS011;8643;48.824;11.422;2023-07-16T07:00:42;3.53;;;1.80;;
17052;SDS011;8643;48.824;11.422;2023-07-16T07:03:10;3.97;;;2.00;;
17052;SDS011;8643;48.824;11.422;2023-07-16T07:05:40;5.07;;;1.83;;
17052;SDS011;8643;48.824;11.422;2023-07-16T07:08:09;2.85;;;1.98;;
17052;SDS011;8643;48.824;11.422;2023-07-16T07:10:37;3.67;;;1.80;;
17052;SDS011;8643;48.824;11.422;2023-07-16T07:13:07;4.47;;;1.90;;
17052;SDS011;8643;48.824;11.422;2023-07-16T07:15:37;4.25;;;1.73;;
17052;SDS011;8643;48.824;11.422;2023-07-16T07:18:05;4.45;;;1.90;;
17052;SDS011;8643;48.824;11.422;2023-07-16T07:20:34;5.03;;;2.08;;
17052;SDS011;8643;48.824;11.422;2023-07-16T07:23:03;3.72;;;1.60;;
17052;SDS011;8643;48.824;11.422;2023-07-16T07:25:31;2.50;;;1.73;;
17052;SDS011;8643;48.824;11.422;2023-07-16T07:28:00;3.10;;;1.60;;
17052;SDS011;8643;48.824;11.422;2023-07-16T07:30:29;5.40;;;2.05;;
17052;SDS011;8643;48.824;11.422;2023-07-16T07:32:59;7.03;;;2.05;;
17052;SDS011;8643;48.824;11.422;2023-07-16T07:35:27;6.20;;;1.70;;
17052;SDS011;8643;48.824;11.422;2023-07-16T07:37:56;4.75;;;1.70;;
17052;SDS011;8643;48.824;11.422;2023-07-16T07:40:24;4.75;;;1.67;;
17052;SDS011;8643;48.824;11.422;2023-07-16T07:42:54;4.38;;;1.70;;
17052;SDS011;8643;48.824;11.422;2023-07-16T07:45:23;4.68;;;1.80;;
17052;SDS011;8643;48.824;11.422;2023-07-16T07:47:51;5.60;;;1.90;;
17052;SDS011;8643;48.824;11.422;2023-07-16T07:50:21;3.50;;;1.88;;
17052;SDS011;8643;48.824;11.422;2023-07-16T07:52:50;3.67;;;1.77;;
17052;SDS011;8643;48.824;11.422;2023-07-16T07:55:18;3.47;;;2.08;;
17052;SDS011;8643;48.824;11.422;2023-07-16T07:57:47;2.70;;;1.75;;
17052;SDS011;8643;48.824;11.422;2023-07-16T08:00:15;3.33;;;1.73;;
17052;SDS011;8643;48.824;11.422;2023-07-16T08:02:44;5.13;;;1.95;;
17052;SDS011;8643;48.824;11.422;2023-07-16T08:05:13;4.32;;;2.10;;
17052;SDS011;8643;48.824;11.422;2023-07-16T08:07:43;6.35;;;1.80;;
17052;SDS011;8643;48.824;11.422;2023-07-16T08:10:12;4.35;;;2.05;;
17052;SDS011;8643;48.824;11.422;2023-07-16T08:12:40;3.65;;;2.10;;
17052;SDS011;8643;48.824;11.422;2023-07-16T08:15:09;4.25;;;2.25;;
17052;SDS011;8643;48.824;11.422;2023-07-16T08:17:40;5.15;;;2.55;;
17052;SDS011;8643;48.824;11.422;2023-07-16T08:20:10;7.55;;;2.53;;
17052;SDS011;8643;48.824;11.422;2023-07-16T08:22:39;7.32;;;2.60;;
17052;SDS011;8643;48.824;11.422;2023-07-16T08:25:10;3.25;;;2.33;;
17052;SDS011;8643;48.824;11.422;2023-07-16T08:27:38;5.47;;;2.95;;
17052;SDS011;8643;48.824;11.422;2023-07-16T08:30:07;4.00;;;2.72;;
17052;SDS011;8643;48.824;11.422;2023-07-16T08:32:36;4.13;;;2.70;;
17052;SDS011;8643;48.824;11.422;2023-07-16T08:35:05;4.80;;;2.80;;
17052;SDS011;8643;48.824;11.422;2023-07-16T08:37:44;4.70;;;2.92;;
17052;SDS011;8643;48.824;11.422;2023-07-16T08:40:14;5.53;;;2.83;;
17052;SDS011;8643;48.824;11.422;2023-07-16T08:42:44;6.63;;;2.70;;
17052;SDS011;8643;48.824;11.422;2023-07-16T08:45:13;4.40;;;2.70;;
17052;SDS011;8643;48.824;11.422;2023-07-16T08:47:42;4.85;;;2.65;;
17052;SDS011;8643;48.824;11.422;2023-07-16T08:50:11;3.15;;;2.15;;
17052;SDS011;8643;48.824;11.422;2023-07-16T08:52:40;7.07;;;2.17;;
17052;SDS011;8643;48.824;11.422;2023-07-16T08:55:09;3.13;;;2.22;;
17052;SDS011;8643;48.824;11.422;2023-07-16T08:57:39;5.25;;;2.63;;
17052;SDS011;8643;48.824;11.422;2023-07-16T09:00:09;5.57;;;2.63;;
17052;SDS011;8643;48.824;11.422;2023-07-16T09:02:41;6.97;;;2.38;;
17052;SDS011;8643;48.824;11.422;2023-07-16T09:05:09;4.10;;;2.47;;
17052;SDS011;8643;48.824;11.422;2023-07-16T09:07:53;5.53;;;2.40;;
17052;SDS011;8643;48.824;11.422;2023-07-16T09:10:22;3.95;;;2.38;;
17052;SDS011;8643;48.824;11.422;2023-07-16T09:12:52;6.95;;;2.22;;
17052;SDS011;8643;48.824;11.422;2023-07-16T09:15:20;3.85;;;2.20;;
17052;SDS011;8643;48.824;11.422;2023-07-16T09:17:48;5.05;;;2.50;;
17052;SDS011;8643;48.824;11.422;2023-07-16T09:20:17;7.20;;;2.40;;
17052;SDS011;8643;48.824;11.422;2023-07-16T09:22:47;3.83;;;2.13;;
17052;SDS011;8643;48.824;11.422;2023-07-16T09:25:15;3.15;;;1.90;;
17052;SDS011;8643;48.824;11.422;2023-07-16T09:27:47;3.80;;;2.50;;
17052;SDS011;8643;48.824;11.422;2023-07-16T09:30:18;3.40;;;2.50;;
17052;SDS011;8643;48.824;11.422;2023-07-16T09:32:46;3.45;;;2.45;;
17052;SDS011;8643;48.824;11.422;2023-07-16T09:35:15;5.68;;;2.20;;
17052;SDS011;8643;48.824;11.422;2023-07-16T09:37:45;4.45;;;2.53;;
17052;SDS011;8643;48.824;11.422;2023-07-16T09:40:13;4.72;;;2.40;;
17052;SDS011;8643;48.824;11.422;2023-07-16T09:42:42;6.35;;;2.65;;
17052;SDS011;8643;48.824;11.422;2023-07-16T09:45:13;4.88;;;2.75;;
17052;SDS011;8643;48.824;11.422;2023-07-16T09:47:46;4.88;;;2.47;;
17052;SDS011;8643;48.824;11.422;2023-07-16T09:50:15;4.15;;;2.70;;
17052;SDS011;8643;48.824;11.422;2023-07-16T09:52:44;4.90;;;2.70;;
17052;SDS011;8643;48.824;11.422;2023-07-16T09:55:15;3.95;;;2.63;;
17052;SDS011;8643;48.824;11.422;2023-07-16T09:57:49;4.40;;;2.40;;
17052;SDS011;8643;48.824;11.422;2023-07-16T10:00:23;4.90;;;2.30;;
17052;SDS011;8643;48.824;11.422;2023-07-16T10:02:52;3.28;;;2.05;;
17052;SDS011;8643;48.824;11.422;2023-07-16T10:05:24;3.25;;;2.03;;
17052;SDS011;8643;48.824;11.422;2023-07-16T10:07:57;4.45;;;2.20;;
17052;SDS011;8643;48.824;11.422;2023-07-16T10:10:37;3.97;;;2.03;;
17052;SDS011;8643;48.824;11.422;2023-07-16T10:13:07;3.75;;;2.00;;
17052;SDS011;8643;48.824;11.422;2023-07-16T10:15:50;5.28;;;2.05;;
17052;SDS011;8643;48.824;11.422;2023-07-16T10:18:26;8.05;;;2.17;;
17052;SDS011;8643;48.824;11.422;2023-07-16T10:21:02;2.33;;;1.85;;
17052;SDS011;8643;48.824;11.422;2023-07-16T10:23:39;2.13;;;1.45;;
17052;SDS011;8643;48.824;11.422;2023-07-16T10:26:10;4.57;;;2.17;;
17052;SDS011;8643;48.824;11.422;2023-07-16T10:28:45;3.45;;;1.63;;
17052;SDS011;8643;48.824;11.422;2023-07-16T10:31:19;5.18;;;1.70;;
17052;SDS011;8643;48.824;11.422;2023-07-16T10:33:59;3.00;;;1.40;;
17052;SDS011;8643;48.824;11.422;2023-07-16T10:36:28;2.83;;;1.60;;
17052;SDS011;8643;48.824;11.422;2023-07-16T10:39:01;7.30;;;1.85;;
17052;SDS011;8643;48.824;11.422;2023-07-16T10:41:31;6.85;;;1.80;;
17052;SDS011;8643;48.824;11.422;2023-07-16T10:44:00;2.30;;;1.70;;
17052;SDS011;8643;48.824;11.422;2023-07-16T10:46:31;6.53;;;1.88;;
17052;SDS011;8643;48.824;11.422;2023-07-16T10:49:00;3.45;;;1.77;;
17052;SDS011;8643;48.824;11.422;2023-07-16T10:51:29;4.90;;;2.00;;
17052;SDS011;8643;48.824;11.422;2023-07-16T10:53:57;4.78;;;2.10;;
17052;SDS011;8643;48.824;11.422;2023-07-16T10:56:26;3.20;;;1.83;;
17052;SDS011;8643;48.824;11.422;2023-07-16T10:58:55;3.45;;;1.80;;
17052;SDS011;8643;48.824;11.422;2023-07-16T11:01:28;5.40;;;1.90;;
17052;SDS011;8643;48.824;11.422;2023-07-16T11:04:01;2.58;;;1.85;;
17052;SDS011;8643;48.824;11.422;2023-07-16T11:06:29;3.22;;;1.70;;
17052;SDS011;8643;48.824;11.422;2023-07-16T11:09:05;4.47;;;2.10;;
17052;SDS011;8643;48.824;11.422;2023-07-16T11:11:34;4.93;;;1.80;;
17052;SDS011;8643;48.824;11.422;2023-07-16T11:14:04;3.70;;;1.90;;
17052;SDS011;8643;48.824;11.422;2023-07-16T11:16:33;3.97;;;2.00;;
17052;SDS011;8643;48.824;11.422;2023-07-16T11:19:05;3.67;;;2.00;;
17052;SDS011;8643;48.824;11.422;2023-07-16T11:21:34;3.78;;;2.20;;
17052;SDS011;8643;48.824;11.422;2023-07-16T11:24:07;4.90;;;1.88;;
17052;SDS011;8643;48.824;11.422;2023-07-16T11:26:37;4.18;;;2.53;;
17052;SDS011;8643;48.824;11.422;2023-07-16T11:29:12;3.33;;;1.77;;
17052;SDS011;8643;48.824;11.422;2023-07-16T11:31:41;3.90;;;1.98;;
17052;SDS011;8643;48.824;11.422;2023-07-16T11:34:13;5.20;;;1.95;;
17052;SDS011;8643;48.824;11.422;2023-07-16T11:36:42;4.25;;;1.75;;
17052;SDS011;8643;48.824;11.422;2023-07-16T11:39:10;3.03;;;2.15;;
17052;SDS011;8643;48.824;11.422;2023-07-16T11:41:39;4.43;;;2.08;;
17052;SDS011;8643;48.824;11.422;2023-07-16T11:44:08;3.30;;;1.80;;
17052;SDS011;8643;48.824;11.422;2023-07-16T11:46:39;4.10;;;2.47;;
17052;SDS011;8643;48.824;11.422;2023-07-16T11:49:08;2.80;;;1.90;;
17052;SDS011;8643;48.824;11.422;2023-07-16T11:51:37;3.08;;;1.90;;
17052;SDS011;8643;48.824;11.422;2023-07-16T11:54:06;2.38;;;1.80;;
17052;SDS011;8643;48.824;11.422;2023-07-16T11:56:35;2.45;;;1.92;;
17052;SDS011;8643;48.824;11.422;2023-07-16T11:59:04;3.03;;;1.80;;
17052;SDS011;8643;48.824;11.422;2023-07-16T12:01:32;3.65;;;2.50;;
17052;SDS011;8643;48.824;11.422;2023-07-16T12:04:01;2.53;;;2.00;;
17052;SDS011;8643;48.824;11.422;2023-07-16T12:06:29;6.68;;;2.30;;
17052;SDS011;8643;48.824;11.422;2023-07-16T12:08:59;2.30;;;2.10;;
17052;SDS011;8643;48.824;11.422;2023-07-16T12:11:28;3.65;;;2.17;;
17052;SDS011;8643;48.824;11.422;2023-07-16T12:13:56;2.72;;;2.22;;
17052;SDS011;8643;48.824;11.422;2023-07-16T12:16:24;2.85;;;2.22;;
17052;SDS011;8643;48.824;11.422;2023-07-16T12:18:53;3.63;;;2.08;;
17052;SDS011;8643;48.824;11.422;2023-07-16T12:21:21;3.85;;;2.58;;
17052;SDS011;8643;48.824;11.422;2023-07-16T12:23:51;4.30;;;2.42;;
17052;SDS011;8643;48.824;11.422;2023-07-16T12:26:21;3.70;;;2.63;;
17052;SDS011;8643;48.824;11.422;2023-07-16T12:28:50;2.55;;;2.30;;
17052;SDS011;8643;48.824;11.422;2023-07-16T12:31:18;4.13;;;2.55;;
17052;SDS011;8643;48.824;11.422;2023-07-16T12:33:47;3.25;;;2.47;;
17052;SDS011;8643;48.824;11.422;2023-07-16T12:36:19;2.78;;;2.42;;
17052;SDS011;8643;48.824;11.422;2023-07-16T12:38:47;2.30;;;2.05;;
17052;SDS011;8643;48.824;11.422;2023-07-16T12:41:16;2.45;;;2.20;;
17052;SDS011;8643;48.824;11.422;2023-07-16T12:43:46;4.63;;;2.15;;
17052;SDS011;8643;48.824;11.422;2023-07-16T12:46:15;3.58;;;2.20;;
17052;SDS011;8643;48.824;11.422;2023-07-16T12:48:44;3.08;;;2.13;;
17052;SDS011;8643;48.824;11.422;2023-07-16T12:51:13;4.80;;;2.42;;
17052;SDS011;8643;48.824;11.422;2023-07-16T12:53:41;2.63;;;2.35;;
17052;SDS011;8643;48.824;11.422;2023-07-16T12:56:11;3.08;;;2.25;;
17052;SDS011;8643;48.824;11.422;2023-07-16T12:58:41;2.42;;;2.03;;
17052;SDS011;8643;48.824;11.422;2023-07-16T13:01:11;4.28;;;2.20;;
17052;SDS011;8643;48.824;11.422;2023-07-16T13:03:40;3.22;;;2.20;;
17052;SDS011;8643;48.824;11.422;2023-07-16T13:06:08;4.60;;;2.30;;
17052;SDS011;8643;48.824;11.422;2023-07-16T13:08:37;4.55;;;2.00;;
17052;SDS011;8643;48.824;11.422;2023-07-16T13:11:05;2.58;;;2.13;;
17052;SDS011;8643;48.824;11.422;2023-07-16T13:13:34;2.10;;;1.90;;
17052;SDS011;8643;48.824;11.422;2023-07-16T13:16:02;2.58;;;2.00;;
17052;SDS011;8643;48.824;11.422;2023-07-16T13:18:33;3.00;;;2.10;;
17052;SDS011;8643;48.824;11.422;2023-07-16T13:21:01;3.17;;;2.00;;
17052;SDS011;8643;48.824;11.422;2023-07-16T13:23:29;3.80;;;2.03;;
17052;SDS011;8643;48.824;11.422;2023-07-16T13:25:58;2.63;;;1.85;;
17052;SDS011;8643;48.824;11.422;2023-07-16T13:28:27;3.67;;;2.28;;
17052;SDS011;8643;48.824;11.422;2023-07-16T13:30:55;4.07;;;1.90;;
17052;SDS011;8643;48.824;11.422;2023-07-16T13:33:24;3.60;;;1.92;;
17052;SDS011;8643;48.824;11.422;2023-07-16T13:35:54;3.92;;;2.03;;
17052;SDS011;8643;48.824;11.422;2023-07-16T13:38:23;3.40;;;2.17;;
17052;SDS011;8643;48.824;11.422;2023-07-16T13:40:52;2.60;;;2.03;;
17052;SDS011;8643;48.824;11.422;2023-07-16T13:43:20;3.05;;;1.95;;
17052;SDS011;8643;48.824;11.422;2023-07-16T13:45:49;2.47;;;1.88;;
17052;SDS011;8643;48.824;11.422;2023-07-16T13:48:17;3.20;;;1.77;;
17052;SDS011;8643;48.824;11.422;2023-07-16T13:50:46;4.20;;;1.95;;
17052;SDS011;8643;48.824;11.422;2023-07-16T13:53:16;4.78;;;2.00;;
17052;SDS011;8643;48.824;11.422;2023-07-16T13:55:45;2.97;;;1.92;;
17052;SDS011;8643;48.824;11.422;2023-07-16T13:58:14;4.68;;;1.70;;
17052;SDS011;8643;48.824;11.422;2023-07-16T14:00:42;4.07;;;1.77;;
17052;SDS011;8643;48.824;11.422;2023-07-16T14:03:11;4.85;;;1.90;;
17052;SDS011;8643;48.824;11.422;2023-07-16T14:05:39;4.30;;;1.80;;
17052;SDS011;8643;48.824;11.422;2023-07-16T14:08:08;2.95;;;1.80;;
17052;SDS011;8643;48.824;11.422;2023-07-16T14:10:37;2.85;;;1.90;;
17052;SDS011;8643;48.824;11.422;2023-07-16T14:13:06;2.17;;;1.60;;
17052;SDS011;8643;48.824;11.422;2023-07-16T14:15:34;3.08;;;1.80;;
17052;SDS011;8643;48.824;11.422;2023-07-16T14:18:03;3.05;;;1.73;;
17052;SDS011;8643;48.824;11.422;2023-07-16T14:20:31;2.40;;;1.73;;
17052;SDS011;8643;48.824;11.422;2023-07-16T14:23:00;2.08;;;1.60;;
17052;SDS011;8643;48.824;11.422;2023-07-16T14:25:30;2.38;;;1.58;;
17052;SDS011;8643;48.824;11.422;2023-07-16T14:28:00;3.42;;;1.90;;
17052;SDS011;8643;48.824;11.422;2023-07-16T14:30:28;2.75;;;1.60;;
17052;SDS011;8643;48.824;11.422;2023-07-16T14:32:57;2.60;;;1.75;;
17052;SDS011;8643;48.824;11.422;2023-07-16T14:35:27;2.20;;;1.90;;
17052;SDS011;8643;48.824;11.422;2023-07-16T14:38:03;2.55;;;1.77;;
17052;SDS011;8643;48.824;11.422;2023-07-16T14:40:31;3.15;;;1.90;;
17052;SDS011;8643;48.824;11.422;2023-07-16T14:43:03;2.42;;;1.80;;
17052;SDS011;8643;48.824;11.422;2023-07-16T14:45:32;3.58;;;2.03;;
17052;SDS011;8643;48.824;11.422;2023-07-16T14:48:02;8.07;;;2.10;;
17052;SDS011;8643;48.824;11.422;2023-07-16T14:50:31;4.97;;;1.90;;
17052;SDS011;8643;48.824;11.422;2023-07-16T14:52:59;5.70;;;1.75;;
17052;SDS011;8643;48.824;11.422;2023-07-16T14:55:28;3.80;;;1.73;;
17052;SDS011;8643;48.824;11.422;2023-07-16T14:57:57;2.80;;;2.05;;
17052;SDS011;8643;48.824;11.422;2023-07-16T15:00:27;2.88;;;1.90;;